sensor_id;sensor_type;location;lat;lon;timestamp;P1;durP1;ratioP1;P2;durP2;ratioP2
13487;SDS011;6816;48.506;9.050;2022-07-12T00:02:15;2.43;;;2.23;;
13487;SDS011;6816;48.506;9.050;2022-07-12T00:05:16;2.77;;;2.57;;
13487;SDS011;6816;48.506;9.050;2022-07-12T00:08:17;2.50;;;2.17;;
13487;SDS011;6816;48.506;9.050;2022-07-12T00:11:17;2.07;;;1.87;;
13487;SDS011;6816;48.506;9.050;2022-07-12T00:14:18;3.33;;;2.33;;
13487;SDS011;6816;48.506;9.050;2022-07-12T00:17:19;2.30;;;2.10;;
13487;SDS011;6816;48.506;9.050;2022-07-12T00:20:19;2.53;;;2.33;;
13487;SDS011;6816;48.506;9.050;2022-07-12T00:23:20;2.37;;;2.17;;
13487;SDS011;6816;48.506;9.050;2022-07-12T00:26:20;2.17;;;1.97;;
13487;SDS011;6816;48.506;9.050;2022-07-12T00:29:21;2.50;;;2.30;;
13487;SDS011;6816;48.506;9.050;2022-07-12T00:32:22;3.07;;;2.53;;
13487;SDS011;6816;48.506;9.050;2022-07-12T00:35:22;3.40;;;2.63;;
13487;SDS011;6816;48.506;9.050;2022-07-12T00:38:23;2.37;;;2.17;;
13487;SDS011;6816;48.506;9.050;2022-07-12T00:41:24;3.10;;;2.20;;
13487;SDS011;6816;48.506;9.050;2022-07-12T00:44:24;2.37;;;2.17;;
13487;SDS011;6816;48.506;9.050;2022-07-12T00:47:34;3.03;;;2.20;;
13487;SDS011;6816;48.506;9.050;2022-07-12T00:50:37;2.40;;;2.20;;
13487;SDS011;6816;48.506;9.050;2022-07-12T00:53:38;2.63;;;2.20;;
13487;SDS011;6816;48.506;9.050;2022-07-12T00:56:38;2.20;;;2.10;;
13487;SDS011;6816;48.506;9.050;2022-07-12T00:59:39;2.77;;;1.93;;
13487;SDS011;6816;48.506;9.050;2022-07-12T01:02:40;2.23;;;2.03;;
13487;SDS011;6816;48.506;9.050;2022-07-12T01:05:42;3.03;;;2.03;;
13487;SDS011;6816;48.506;9.050;2022-07-12T01:08:44;2.47;;;2.27;;
13487;SDS011;6816;48.506;9.050;2022-07-12T01:11:45;2.20;;;1.97;;
13487;SDS011;6816;48.506;9.050;2022-07-12T01:14:46;2.30;;;2.10;;
13487;SDS011;6816;48.506;9.050;2022-07-12T01:17:48;2.40;;;2.20;;
13487;SDS011;6816;48.506;9.050;2022-07-12T01:20:49;2.60;;;2.40;;
13487;SDS011;6816;48.506;9.050;2022-07-12T01:23:50;2.17;;;1.90;;
13487;SDS011;6816;48.506;9.050;2022-07-12T01:26:51;2.60;;;2.40;;
13487;SDS011;6816;48.506;9.050;2022-07-12T01:29:53;2.10;;;1.93;;
13487;SDS011;6816;48.506;9.050;2022-07-12T01:32:54;2.40;;;2.20;;
13487;SDS011;6816;48.506;9.050;2022-07-12T01:35:56;2.37;;;2.03;;
13487;SDS011;6816;48.506;9.050;2022-07-12T01:38:57;2.50;;;2.30;;
13487;SDS011;6816;48.506;9.050;2022-07-12T01:41:58;2.30;;;2.10;;
13487;SDS011;6816;48.506;9.050;2022-07-12T01:44:59;3.13;;;2.37;;
13487;SDS011;6816;48.506;9.050;2022-07-12T01:48:00;2.83;;;2.23;;
13487;SDS011;6816;48.506;9.050;2022-07-12T01:51:00;2.37;;;2.17;;
13487;SDS011;6816;48.506;9.050;2022-07-12T01:54:01;2.33;;;2.13;;
13487;SDS011;6816;48.506;9.050;2022-07-12T01:57:05;2.20;;;2.03;;
13487;SDS011;6816;48.506;9.050;2022-07-12T02:00:06;2.47;;;2.13;;
13487;SDS011;6816;48.506;9.050;2022-07-12T02:03:07;2.50;;;2.30;;
13487;SDS011;6816;48.506;9.050;2022-07-12T02:06:08;2.60;;;2.10;;
13487;SDS011;6816;48.506;9.050;2022-07-12T02:09:09;2.40;;;2.20;;
13487;SDS011;6816;48.506;9.050;2022-07-12T02:12:09;2.50;;;2.23;;
13487;SDS011;6816;48.506;9.050;2022-07-12T02:15:10;2.50;;;2.30;;
13487;SDS011;6816;48.506;9.050;2022-07-12T02:18:10;2.63;;;2.43;;
13487;SDS011;6816;48.506;9.050;2022-07-12T02:21:11;2.40;;;2.20;;
13487;SDS011;6816;48.506;9.050;2022-07-12T02:24:12;2.20;;;2.00;;
13487;SDS011;6816;48.506;9.050;2022-07-12T02:27:13;2.27;;;1.93;;
13487;SDS011;6816;48.506;9.050;2022-07-12T02:30:14;2.27;;;2.07;;
13487;SDS011;6816;48.506;9.050;2022-07-12T02:33:15;2.40;;;2.20;;
13487;SDS011;6816;48.506;9.050;2022-07-12T02:36:15;2.00;;;1.90;;
13487;SDS011;6816;48.506;9.050;2022-07-12T02:39:16;2.50;;;2.30;;
13487;SDS011;6816;48.506;9.050;2022-07-12T02:42:17;2.70;;;2.20;;
13487;SDS011;6816;48.506;9.050;2022-07-12T02:45:17;2.53;;;2.33;;
13487;SDS011;6816;48.506;9.050;2022-07-12T02:48:18;2.63;;;2.43;;
13487;SDS011;6816;48.506;9.050;2022-07-12T02:51:19;2.37;;;2.17;;
13487;SDS011;6816;48.506;9.050;2022-07-12T02:54:20;3.47;;;2.50;;
13487;SDS011;6816;48.506;9.050;2022-07-12T02:57:20;2.30;;;2.10;;
13487;SDS011;6816;48.506;9.050;2022-07-12T03:00:21;2.73;;;2.47;;
13487;SDS011;6816;48.506;9.050;2022-07-12T03:03:22;2.30;;;2.10;;
13487;SDS011;6816;48.506;9.050;2022-07-12T03:06:23;2.87;;;2.67;;
13487;SDS011;6816;48.506;9.050;2022-07-12T03:09:23;3.30;;;2.43;;
13487;SDS011;6816;48.506;9.050;2022-07-12T03:12:24;2.93;;;2.70;;
13487;SDS011;6816;48.506;9.050;2022-07-12T03:15:25;2.33;;;2.13;;
13487;SDS011;6816;48.506;9.050;2022-07-12T03:18:27;2.30;;;2.13;;
13487;SDS011;6816;48.506;9.050;2022-07-12T03:21:28;2.37;;;2.23;;
13487;SDS011;6816;48.506;9.050;2022-07-12T03:24:29;2.20;;;2.00;;
13487;SDS011;6816;48.506;9.050;2022-07-12T03:27:29;2.10;;;1.97;;
13487;SDS011;6816;48.506;9.050;2022-07-12T03:30:33;3.23;;;2.33;;
13487;SDS011;6816;48.506;9.050;2022-07-12T03:33:33;2.37;;;2.17;;
13487;SDS011;6816;48.506;9.050;2022-07-12T03:36:36;2.40;;;2.07;;
13487;SDS011;6816;48.506;9.050;2022-07-12T03:39:36;2.50;;;2.30;;
13487;SDS011;6816;48.506;9.050;2022-07-12T03:42:37;2.57;;;2.20;;
13487;SDS011;6816;48.506;9.050;2022-07-12T03:45:38;2.40;;;2.20;;
13487;SDS011;6816;48.506;9.050;2022-07-12T03:48:40;3.33;;;2.37;;
13487;SDS011;6816;48.506;9.050;2022-07-12T03:51:40;3.30;;;2.33;;
13487;SDS011;6816;48.506;9.050;2022-07-12T03:54:41;4.27;;;2.43;;
13487;SDS011;6816;48.506;9.050;2022-07-12T03:57:42;3.20;;;2.90;;
13487;SDS011;6816;48.506;9.050;2022-07-12T04:00:42;4.80;;;2.90;;
13487;SDS011;6816;48.506;9.050;2022-07-12T04:03:43;3.53;;;2.50;;
13487;SDS011;6816;48.506;9.050;2022-07-12T04:06:44;3.43;;;2.87;;
13487;SDS011;6816;48.506;9.050;2022-07-12T04:09:44;3.30;;;2.53;;
13487;SDS011;6816;48.506;9.050;2022-07-12T04:12:45;2.67;;;2.43;;
13487;SDS011;6816;48.506;9.050;2022-07-12T04:15:46;2.70;;;2.50;;
13487;SDS011;6816;48.506;9.050;2022-07-12T04:18:47;4.90;;;3.40;;
13487;SDS011;6816;48.506;9.050;2022-07-12T04:21:47;3.03;;;2.70;;
13487;SDS011;6816;48.506;9.050;2022-07-12T04:24:48;2.90;;;2.57;;
13487;SDS011;6816;48.506;9.050;2022-07-12T04:27:48;3.23;;;2.57;;
13487;SDS011;6816;48.506;9.050;2022-07-12T04:30:49;4.37;;;2.73;;
13487;SDS011;6816;48.506;9.050;2022-07-12T04:33:50;3.20;;;2.90;;
13487;SDS011;6816;48.506;9.050;2022-07-12T04:36:51;3.03;;;2.73;;
13487;SDS011;6816;48.506;9.050;2022-07-12T04:39:52;3.20;;;2.90;;
13487;SDS011;6816;48.506;9.050;2022-07-12T04:42:52;2.90;;;2.60;;
13487;SDS011;6816;48.506;9.050;2022-07-12T04:45:53;3.80;;;2.67;;
13487;SDS011;6816;48.506;9.050;2022-07-12T04:48:53;4.10;;;2.93;;
13487;SDS011;6816;48.506;9.050;2022-07-12T04:51:54;3.20;;;2.90;;
13487;SDS011;6816;48.506;9.050;2022-07-12T04:54:55;2.83;;;2.60;;
13487;SDS011;6816;48.506;9.050;2022-07-12T04:57:55;3.60;;;3.10;;
13487;SDS011;6816;48.506;9.050;2022-07-12T05:00:56;3.40;;;3.10;;
13487;SDS011;6816;48.506;9.050;2022-07-12T05:03:56;3.83;;;3.43;;
13487;SDS011;6816;48.506;9.050;2022-07-12T05:06:57;4.73;;;3.43;;
13487;SDS011;6816;48.506;9.050;2022-07-12T05:09:58;4.43;;;3.50;;
13487;SDS011;6816;48.506;9.050;2022-07-12T05:12:58;3.40;;;3.10;;
13487;SDS011;6816;48.506;9.050;2022-07-12T05:15:59;3.60;;;3.00;;
13487;SDS011;6816;48.506;9.050;2022-07-12T05:19:00;4.47;;;3.63;;
13487;SDS011;6816;48.506;9.050;2022-07-12T05:22:01;4.77;;;3.27;;
13487;SDS011;6816;48.506;9.050;2022-07-12T05:25:02;4.07;;;3.67;;
13487;SDS011;6816;48.506;9.050;2022-07-12T05:28:05;5.03;;;3.80;;
13487;SDS011;6816;48.506;9.050;2022-07-12T05:31:05;3.37;;;3.07;;
13487;SDS011;6816;48.506;9.050;2022-07-12T05:34:10;3.33;;;3.03;;
13487;SDS011;6816;48.506;9.050;2022-07-12T05:37:10;3.42;;;3.13;;
13487;SDS011;6816;48.506;9.050;2022-07-12T05:40:11;3.92;;;3.63;;
13487;SDS011;6816;48.506;9.050;2022-07-12T05:43:11;3.83;;;3.37;;
13487;SDS011;6816;48.506;9.050;2022-07-12T05:46:12;3.83;;;3.53;;
13487;SDS011;6816;48.506;9.050;2022-07-12T05:49:13;3.95;;;3.45;;
13487;SDS011;6816;48.506;9.050;2022-07-12T05:52:13;3.85;;;3.47;;
13487;SDS011;6816;48.506;9.050;2022-07-12T05:55:32;3.92;;;3.20;;
13487;SDS011;6816;48.506;9.050;2022-07-12T05:58:33;3.97;;;3.58;;
13487;SDS011;6816;48.506;9.050;2022-07-12T06:01:34;3.40;;;3.10;;
13487;SDS011;6816;48.506;9.050;2022-07-12T06:04:34;4.05;;;3.70;;
13487;SDS011;6816;48.506;9.050;2022-07-12T06:07:35;5.32;;;3.95;;
13487;SDS011;6816;48.506;9.050;2022-07-12T06:10:36;3.85;;;3.50;;
13487;SDS011;6816;48.506;9.050;2022-07-12T06:13:36;3.95;;;3.65;;
13487;SDS011;6816;48.506;9.050;2022-07-12T06:16:37;4.38;;;3.42;;
13487;SDS011;6816;48.506;9.050;2022-07-12T06:19:38;4.15;;;3.85;;
13487;SDS011;6816;48.506;9.050;2022-07-12T06:22:38;4.97;;;3.78;;
13487;SDS011;6816;48.506;9.050;2022-07-12T06:25:39;3.78;;;3.20;;
13487;SDS011;6816;48.506;9.050;2022-07-12T06:28:40;3.42;;;3.22;;
13487;SDS011;6816;48.506;9.050;2022-07-12T06:31:41;3.55;;;3.25;;
13487;SDS011;6816;48.506;9.050;2022-07-12T06:34:41;3.45;;;3.25;;
13487;SDS011;6816;48.506;9.050;2022-07-12T06:37:42;3.65;;;3.15;;
13487;SDS011;6816;48.506;9.050;2022-07-12T06:40:43;3.55;;;3.25;;
13487;SDS011;6816;48.506;9.050;2022-07-12T06:43:44;3.63;;;3.30;;
13487;SDS011;6816;48.506;9.050;2022-07-12T06:46:44;3.80;;;3.50;;
13487;SDS011;6816;48.506;9.050;2022-07-12T06:49:45;3.90;;;3.60;;
13487;SDS011;6816;48.506;9.050;2022-07-12T06:52:46;3.83;;;3.40;;
13487;SDS011;6816;48.506;9.050;2022-07-12T06:55:46;3.83;;;3.53;;
13487;SDS011;6816;48.506;9.050;2022-07-12T06:58:47;4.47;;;3.30;;
13487;SDS011;6816;48.506;9.050;2022-07-12T07:01:47;4.90;;;3.38;;
13487;SDS011;6816;48.506;9.050;2022-07-12T07:04:48;3.70;;;3.40;;
13487;SDS011;6816;48.506;9.050;2022-07-12T07:07:49;3.72;;;3.30;;
13487;SDS011;6816;48.506;9.050;2022-07-12T07:10:50;3.20;;;3.00;;
13487;SDS011;6816;48.506;9.050;2022-07-12T07:13:52;4.00;;;3.53;;
13487;SDS011;6816;48.506;9.050;2022-07-12T07:16:53;3.65;;;3.35;;
13487;SDS011;6816;48.506;9.050;2022-07-12T07:19:54;3.40;;;3.10;;
13487;SDS011;6816;48.506;9.050;2022-07-12T07:22:55;3.47;;;3.17;;
13487;SDS011;6816;48.506;9.050;2022-07-12T07:25:55;3.75;;;3.05;;
13487;SDS011;6816;48.506;9.050;2022-07-12T07:28:56;3.90;;;3.22;;
13487;SDS011;6816;48.506;9.050;2022-07-12T07:32:15;3.92;;;3.53;;
13487;SDS011;6816;48.506;9.050;2022-07-12T07:35:16;3.47;;;3.17;;
13487;SDS011;6816;48.506;9.050;2022-07-12T07:38:17;3.80;;;3.45;;
13487;SDS011;6816;48.506;9.050;2022-07-12T07:41:18;3.20;;;2.90;;
13487;SDS011;6816;48.506;9.050;2022-07-12T07:44:19;3.85;;;3.13;;
13487;SDS011;6816;48.506;9.050;2022-07-12T07:47:20;3.78;;;3.20;;
13487;SDS011;6816;48.506;9.050;2022-07-12T07:50:21;3.78;;;3.45;;
13487;SDS011;6816;48.506;9.050;2022-07-12T07:53:22;3.20;;;2.97;;
13487;SDS011;6816;48.506;9.050;2022-07-12T07:56:24;5.10;;;3.38;;
13487;SDS011;6816;48.506;9.050;2022-07-12T07:59:25;3.40;;;3.00;;
13487;SDS011;6816;48.506;9.050;2022-07-12T08:02:26;2.60;;;2.42;;
13487;SDS011;6816;48.506;9.050;2022-07-12T08:05:26;2.83;;;2.58;;
13487;SDS011;6816;48.506;9.050;2022-07-12T08:08:27;2.30;;;2.10;;
13487;SDS011;6816;48.506;9.050;2022-07-12T08:11:31;2.55;;;2.35;;
13487;SDS011;6816;48.506;9.050;2022-07-12T08:14:32;2.20;;;2.10;;
13487;SDS011;6816;48.506;9.050;2022-07-12T08:17:33;3.55;;;2.42;;
13487;SDS011;6816;48.506;9.050;2022-07-12T08:20:33;1.60;;;1.50;;
13487;SDS011;6816;48.506;9.050;2022-07-12T08:23:34;4.45;;;2.13;;
13487;SDS011;6816;48.506;9.050;2022-07-12T08:26:35;1.90;;;1.80;;
13487;SDS011;6816;48.506;9.050;2022-07-12T08:29:35;3.15;;;2.05;;
13487;SDS011;6816;48.506;9.050;2022-07-12T08:32:36;1.88;;;1.77;;
13487;SDS011;6816;48.506;9.050;2022-07-12T08:35:37;1.63;;;1.52;;
13487;SDS011;6816;48.506;9.050;2022-07-12T08:38:38;2.40;;;2.20;;
13487;SDS011;6816;48.506;9.050;2022-07-12T08:41:41;1.75;;;1.52;;
13487;SDS011;6816;48.506;9.050;2022-07-12T08:44:42;2.10;;;1.63;;
13487;SDS011;6816;48.506;9.050;2022-07-12T08:47:43;1.73;;;1.60;;
13487;SDS011;6816;48.506;9.050;2022-07-12T08:50:43;2.08;;;1.95;;
13487;SDS011;6816;48.506;9.050;2022-07-12T08:54:12;2.35;;;1.73;;
13487;SDS011;6816;48.506;9.050;2022-07-12T08:57:27;1.60;;;1.50;;
13487;SDS011;6816;48.506;9.050;2022-07-12T09:00:31;2.60;;;1.60;;
13487;SDS011;6816;48.506;9.050;2022-07-12T09:03:32;2.58;;;1.95;;
13487;SDS011;6816;48.506;9.050;2022-07-12T09:06:33;1.70;;;1.60;;
13487;SDS011;6816;48.506;9.050;2022-07-12T09:09:34;1.50;;;1.40;;
13487;SDS011;6816;48.506;9.050;2022-07-12T09:12:35;1.20;;;1.20;;
13487;SDS011;6816;48.506;9.050;2022-07-12T09:15:37;1.33;;;1.23;;
13487;SDS011;6816;48.506;9.050;2022-07-12T09:18:37;1.48;;;1.38;;
13487;SDS011;6816;48.506;9.050;2022-07-12T09:21:38;7.13;;;1.85;;
13487;SDS011;6816;48.506;9.050;2022-07-12T09:24:50;1.52;;;1.42;;
13487;SDS011;6816;48.506;9.050;2022-07-12T09:27:51;1.20;;;1.10;;
13487;SDS011;6816;48.506;9.050;2022-07-12T09:30:53;1.23;;;1.23;;
13487;SDS011;6816;48.506;9.050;2022-07-12T09:34:01;1.23;;;1.10;;
13487;SDS011;6816;48.506;9.050;2022-07-12T09:37:20;1.30;;;1.20;;
13487;SDS011;6816;48.506;9.050;2022-07-12T09:40:21;1.73;;;1.10;;
13487;SDS011;6816;48.506;9.050;2022-07-12T09:43:22;1.00;;;1.00;;
13487;SDS011;6816;48.506;9.050;2022-07-12T09:46:23;1.00;;;1.00;;
13487;SDS011;6816;48.506;9.050;2022-07-12T09:49:24;1.00;;;1.00;;
13487;SDS011;6816;48.506;9.050;2022-07-12T09:52:27;0.93;;;0.90;;
13487;SDS011;6816;48.506;9.050;2022-07-12T09:55:29;1.65;;;0.90;;
13487;SDS011;6816;48.506;9.050;2022-07-12T09:59:06;0.82;;;0.82;;
13487;SDS011;6816;48.506;9.050;2022-07-12T10:02:01;1.02;;;0.75;;
13487;SDS011;6816;48.506;9.050;2022-07-12T10:05:04;0.82;;;0.82;;
13487;SDS011;6816;48.506;9.050;2022-07-12T10:08:07;1.00;;;0.90;;
13487;SDS011;6816;48.506;9.050;2022-07-12T10:11:07;1.40;;;0.90;;
13487;SDS011;6816;48.506;9.050;2022-07-12T10:14:11;0.70;;;0.70;;
13487;SDS011;6816;48.506;9.050;2022-07-12T10:17:13;1.80;;;1.00;;
13487;SDS011;6816;48.506;9.050;2022-07-12T10:20:25;0.70;;;0.70;;
13487;SDS011;6816;48.506;9.050;2022-07-12T10:23:30;0.80;;;0.77;;
13487;SDS011;6816;48.506;9.050;2022-07-12T10:26:38;1.38;;;0.82;;
13487;SDS011;6816;48.506;9.050;2022-07-12T10:29:46;0.80;;;0.77;;
13487;SDS011;6816;48.506;9.050;2022-07-12T10:32:48;1.02;;;0.60;;
13487;SDS011;6816;48.506;9.050;2022-07-12T10:36:00;1.10;;;0.90;;
13487;SDS011;6816;48.506;9.050;2022-07-12T10:39:11;0.75;;;0.75;;
13487;SDS011;6816;48.506;9.050;2022-07-12T10:42:14;1.85;;;0.90;;
13487;SDS011;6816;48.506;9.050;2022-07-12T10:45:16;0.73;;;0.73;;
13487;SDS011;6816;48.506;9.050;2022-07-12T10:51:18;0.70;;;0.70;;
13487;SDS011;6816;48.506;9.050;2022-07-12T10:54:22;0.80;;;0.80;;
13487;SDS011;6816;48.506;9.050;2022-07-12T11:00:43;0.88;;;0.88;;
13487;SDS011;6816;48.506;9.050;2022-07-12T11:03:45;1.17;;;0.70;;
13487;SDS011;6816;48.506;9.050;2022-07-12T11:06:46;0.85;;;0.85;;
13487;SDS011;6816;48.506;9.050;2022-07-12T11:09:51;0.90;;;0.90;;
13487;SDS011;6816;48.506;9.050;2022-07-12T11:12:52;1.02;;;0.93;;
13487;SDS011;6816;48.506;9.050;2022-07-12T11:15:56;0.98;;;0.88;;
13487;SDS011;6816;48.506;9.050;2022-07-12T11:18:58;1.10;;;0.90;;
13487;SDS011;6816;48.506;9.050;2022-07-12T11:21:58;0.80;;;0.80;;
13487;SDS011;6816;48.506;9.050;2022-07-12T11:24:59;0.98;;;0.80;;
13487;SDS011;6816;48.506;9.050;2022-07-12T11:28:00;1.20;;;0.90;;
13487;SDS011;6816;48.506;9.050;2022-07-12T11:31:01;1.17;;;0.75;;
13487;SDS011;6816;48.506;9.050;2022-07-12T11:34:03;1.08;;;0.98;;
13487;SDS011;6816;48.506;9.050;2022-07-12T11:37:04;1.48;;;0.90;;
13487;SDS011;6816;48.506;9.050;2022-07-12T11:40:05;1.00;;;0.80;;
13487;SDS011;6816;48.506;9.050;2022-07-12T11:43:06;0.70;;;0.70;;
13487;SDS011;6816;48.506;9.050;2022-07-12T11:46:07;2.10;;;1.00;;
13487;SDS011;6816;48.506;9.050;2022-07-12T11:49:08;0.80;;;0.80;;
13487;SDS011;6816;48.506;9.050;2022-07-12T11:52:18;1.27;;;0.90;;
13487;SDS011;6816;48.506;9.050;2022-07-12T11:55:20;0.68;;;0.68;;
13487;SDS011;6816;48.506;9.050;2022-07-12T11:58:22;0.82;;;0.82;;
13487;SDS011;6816;48.506;9.050;2022-07-12T12:01:23;0.85;;;0.80;;
13487;SDS011;6816;48.506;9.050;2022-07-12T12:04:26;0.70;;;0.70;;
13487;SDS011;6816;48.506;9.050;2022-07-12T12:07:26;0.80;;;0.70;;
13487;SDS011;6816;48.506;9.050;2022-07-12T12:10:27;0.98;;;0.70;;
13487;SDS011;6816;48.506;9.050;2022-07-12T12:13:28;1.20;;;0.82;;
13487;SDS011;6816;48.506;9.050;2022-07-12T12:16:33;0.95;;;0.85;;
13487;SDS011;6816;48.506;9.050;2022-07-12T12:19:40;0.80;;;0.80;;
13487;SDS011;6816;48.506;9.050;2022-07-12T12:22:42;1.00;;;0.80;;
13487;SDS011;6816;48.506;9.050;2022-07-12T12:25:44;0.70;;;0.70;;
13487;SDS011;6816;48.506;9.050;2022-07-12T12:28:51;0.70;;;0.70;;
13487;SDS011;6816;48.506;9.050;2022-07-12T12:31:56;0.60;;;0.60;;
13487;SDS011;6816;48.506;9.050;2022-07-12T12:35:10;0.80;;;0.80;;
13487;SDS011;6816;48.506;9.050;2022-07-12T12:38:12;0.55;;;0.55;;
13487;SDS011;6816;48.506;9.050;2022-07-12T12:41:14;0.60;;;0.60;;
13487;SDS011;6816;48.506;9.050;2022-07-12T12:44:16;0.70;;;0.60;;
13487;SDS011;6816;48.506;9.050;2022-07-12T12:47:17;1.17;;;0.70;;
13487;SDS011;6816;48.506;9.050;2022-07-12T12:50:41;0.98;;;0.70;;
13487;SDS011;6816;48.506;9.050;2022-07-12T12:53:54;0.70;;;0.52;;
13487;SDS011;6816;48.506;9.050;2022-07-12T12:56:56;0.60;;;0.60;;
13487;SDS011;6816;48.506;9.050;2022-07-12T12:59:57;0.50;;;0.50;;
13487;SDS011;6816;48.506;9.050;2022-07-12T13:02:57;0.55;;;0.55;;
13487;SDS011;6816;48.506;9.050;2022-07-12T13:05:59;1.23;;;0.75;;
13487;SDS011;6816;48.506;9.050;2022-07-12T13:09:00;1.33;;;0.73;;
13487;SDS011;6816;48.506;9.050;2022-07-12T13:12:01;0.60;;;0.52;;
13487;SDS011;6816;48.506;9.050;2022-07-12T13:15:03;2.92;;;0.50;;
13487;SDS011;6816;48.506;9.050;2022-07-12T13:18:07;0.60;;;0.60;;
13487;SDS011;6816;48.506;9.050;2022-07-12T13:21:08;0.63;;;0.60;;
13487;SDS011;6816;48.506;9.050;2022-07-12T13:24:09;0.85;;;0.77;;
13487;SDS011;6816;48.506;9.050;2022-07-12T13:27:09;0.60;;;0.60;;
13487;SDS011;6816;48.506;9.050;2022-07-12T13:30:11;0.60;;;0.60;;
13487;SDS011;6816;48.506;9.050;2022-07-12T13:33:13;0.50;;;0.50;;
13487;SDS011;6816;48.506;9.050;2022-07-12T13:36:14;0.30;;;0.30;;
13487;SDS011;6816;48.506;9.050;2022-07-12T13:39:15;0.50;;;0.50;;
13487;SDS011;6816;48.506;9.050;2022-07-12T13:42:34;0.50;;;0.50;;
13487;SDS011;6816;48.506;9.050;2022-07-12T13:45:35;1.88;;;0.40;;
13487;SDS011;6816;48.506;9.050;2022-07-12T13:48:36;0.90;;;0.60;;
13487;SDS011;6816;48.506;9.050;2022-07-12T13:51:37;0.47;;;0.47;;
13487;SDS011;6816;48.506;9.050;2022-07-12T13:54:37;0.50;;;0.45;;
13487;SDS011;6816;48.506;9.050;2022-07-12T13:57:38;1.42;;;0.50;;
13487;SDS011;6816;48.506;9.050;2022-07-12T14:00:40;1.80;;;0.50;;
13487;SDS011;6816;48.506;9.050;2022-07-12T14:03:41;1.45;;;0.50;;
13487;SDS011;6816;48.506;9.050;2022-07-12T14:06:42;0.60;;;0.60;;
13487;SDS011;6816;48.506;9.050;2022-07-12T14:09:42;0.50;;;0.50;;
13487;SDS011;6816;48.506;9.050;2022-07-12T14:12:43;1.33;;;0.40;;
13487;SDS011;6816;48.506;9.050;2022-07-12T14:15:43;0.47;;;0.47;;
13487;SDS011;6816;48.506;9.050;2022-07-12T14:18:45;0.40;;;0.40;;
13487;SDS011;6816;48.506;9.050;2022-07-12T14:21:46;0.65;;;0.43;;
13487;SDS011;6816;48.506;9.050;2022-07-12T14:24:46;0.95;;;0.70;;
13487;SDS011;6816;48.506;9.050;2022-07-12T14:27:47;0.70;;;0.70;;
13487;SDS011;6816;48.506;9.050;2022-07-12T14:30:48;0.73;;;0.40;;
13487;SDS011;6816;48.506;9.050;2022-07-12T14:33:48;0.57;;;0.50;;
13487;SDS011;6816;48.506;9.050;2022-07-12T14:36:49;1.13;;;0.68;;
13487;SDS011;6816;48.506;9.050;2022-07-12T14:39:50;0.50;;;0.47;;
13487;SDS011;6816;48.506;9.050;2022-07-12T14:42:50;3.10;;;0.50;;
13487;SDS011;6816;48.506;9.050;2022-07-12T14:45:51;0.55;;;0.50;;
13487;SDS011;6816;48.506;9.050;2022-07-12T14:48:52;0.47;;;0.47;;
13487;SDS011;6816;48.506;9.050;2022-07-12T14:51:52;1.48;;;0.60;;
13487;SDS011;6816;48.506;9.050;2022-07-12T14:54:53;0.50;;;0.50;;
13487;SDS011;6816;48.506;9.050;2022-07-12T14:57:54;0.73;;;0.50;;
13487;SDS011;6816;48.506;9.050;2022-07-12T15:00:55;2.80;;;0.45;;
13487;SDS011;6816;48.506;9.050;2022-07-12T15:03:56;4.15;;;0.57;;
13487;SDS011;6816;48.506;9.050;2022-07-12T15:06:57;0.73;;;0.50;;
13487;SDS011;6816;48.506;9.050;2022-07-12T15:09:57;1.17;;;0.50;;
13487;SDS011;6816;48.506;9.050;2022-07-12T15:12:58;0.50;;;0.50;;
13487;SDS011;6816;48.506;9.050;2022-07-12T15:15:59;0.60;;;0.60;;
13487;SDS011;6816;48.506;9.050;2022-07-12T15:18:59;0.50;;;0.50;;
13487;SDS011;6816;48.506;9.050;2022-07-12T15:22:00;1.35;;;0.40;;
13487;SDS011;6816;48.506;9.050;2022-07-12T15:25:01;0.60;;;0.40;;
13487;SDS011;6816;48.506;9.050;2022-07-12T15:28:02;0.40;;;0.40;;
13487;SDS011;6816;48.506;9.050;2022-07-12T15:31:02;0.85;;;0.43;;
13487;SDS011;6816;48.506;9.050;2022-07-12T15:34:03;0.50;;;0.50;;
13487;SDS011;6816;48.506;9.050;2022-07-12T15:37:04;0.30;;;0.30;;
13487;SDS011;6816;48.506;9.050;2022-07-12T15:40:04;1.45;;;0.40;;
13487;SDS011;6816;48.506;9.050;2022-07-12T15:43:05;0.50;;;0.50;;
13487;SDS011;6816;48.506;9.050;2022-07-12T15:46:07;0.50;;;0.50;;
13487;SDS011;6816;48.506;9.050;2022-07-12T15:49:09;0.50;;;0.50;;
13487;SDS011;6816;48.506;9.050;2022-07-12T15:52:11;0.77;;;0.50;;
13487;SDS011;6816;48.506;9.050;2022-07-12T15:55:30;1.52;;;0.50;;
13487;SDS011;6816;48.506;9.050;2022-07-12T15:58:32;1.27;;;0.52;;
13487;SDS011;6816;48.506;9.050;2022-07-12T16:01:34;0.32;;;0.32;;
13487;SDS011;6816;48.506;9.050;2022-07-12T16:04:35;0.47;;;0.40;;
13487;SDS011;6816;48.506;9.050;2022-07-12T16:07:36;0.40;;;0.40;;
13487;SDS011;6816;48.506;9.050;2022-07-12T16:10:38;0.40;;;0.40;;
13487;SDS011;6816;48.506;9.050;2022-07-12T16:13:39;0.40;;;0.40;;
13487;SDS011;6816;48.506;9.050;2022-07-12T16:16:40;0.40;;;0.40;;
13487;SDS011;6816;48.506;9.050;2022-07-12T16:19:40;0.40;;;0.40;;
13487;SDS011;6816;48.506;9.050;2022-07-12T16:22:44;0.30;;;0.30;;
13487;SDS011;6816;48.506;9.050;2022-07-12T16:25:44;0.43;;;0.40;;
13487;SDS011;6816;48.506;9.050;2022-07-12T16:28:45;0.40;;;0.40;;
13487;SDS011;6816;48.506;9.050;2022-07-12T16:31:46;1.02;;;0.40;;
13487;SDS011;6816;48.506;9.050;2022-07-12T16:34:47;0.40;;;0.40;;
13487;SDS011;6816;48.506;9.050;2022-07-12T16:37:48;0.45;;;0.40;;
13487;SDS011;6816;48.506;9.050;2022-07-12T16:40:49;0.50;;;0.40;;
13487;SDS011;6816;48.506;9.050;2022-07-12T16:43:49;0.47;;;0.47;;
13487;SDS011;6816;48.506;9.050;2022-07-12T16:46:50;0.50;;;0.50;;
13487;SDS011;6816;48.506;9.050;2022-07-12T16:49:50;0.50;;;0.50;;
13487;SDS011;6816;48.506;9.050;2022-07-12T16:52:51;0.88;;;0.57;;
13487;SDS011;6816;48.506;9.050;2022-07-12T16:55:52;0.30;;;0.30;;
13487;SDS011;6816;48.506;9.050;2022-07-12T16:58:54;0.85;;;0.50;;
13487;SDS011;6816;48.506;9.050;2022-07-12T17:01:56;0.40;;;0.40;;
13487;SDS011;6816;48.506;9.050;2022-07-12T17:04:56;0.52;;;0.50;;
13487;SDS011;6816;48.506;9.050;2022-07-12T17:07:57;0.50;;;0.50;;
13487;SDS011;6816;48.506;9.050;2022-07-12T17:10:58;0.68;;;0.40;;
13487;SDS011;6816;48.506;9.050;2022-07-12T17:13:58;0.95;;;0.60;;
13487;SDS011;6816;48.506;9.050;2022-07-12T17:16:59;0.40;;;0.40;;
13487;SDS011;6816;48.506;9.050;2022-07-12T17:20:00;0.82;;;0.40;;
13487;SDS011;6816;48.506;9.050;2022-07-12T17:23:00;0.98;;;0.30;;
13487;SDS011;6816;48.506;9.050;2022-07-12T17:26:01;1.27;;;0.50;;
13487;SDS011;6816;48.506;9.050;2022-07-12T17:29:02;0.40;;;0.40;;
13487;SDS011;6816;48.506;9.050;2022-07-12T17:32:03;0.40;;;0.40;;
13487;SDS011;6816;48.506;9.050;2022-07-12T17:35:04;0.40;;;0.40;;
13487;SDS011;6816;48.506;9.050;2022-07-12T17:38:06;0.40;;;0.40;;
13487;SDS011;6816;48.506;9.050;2022-07-12T17:41:07;0.40;;;0.40;;
13487;SDS011;6816;48.506;9.050;2022-07-12T17:44:08;0.40;;;0.40;;
13487;SDS011;6816;48.506;9.050;2022-07-12T17:47:09;0.43;;;0.40;;
13487;SDS011;6816;48.506;9.050;2022-07-12T17:50:10;0.43;;;0.43;;
13487;SDS011;6816;48.506;9.050;2022-07-12T17:53:11;1.27;;;0.40;;
13487;SDS011;6816;48.506;9.050;2022-07-12T17:56:13;0.43;;;0.40;;
13487;SDS011;6816;48.506;9.050;2022-07-12T17:59:14;0.50;;;0.50;;
13487;SDS011;6816;48.506;9.050;2022-07-12T18:02:14;0.32;;;0.32;;
13487;SDS011;6816;48.506;9.050;2022-07-12T18:05:15;0.50;;;0.50;;
13487;SDS011;6816;48.506;9.050;2022-07-12T18:08:16;2.05;;;0.52;;
13487;SDS011;6816;48.506;9.050;2022-07-12T18:11:16;0.52;;;0.43;;
13487;SDS011;6816;48.506;9.050;2022-07-12T18:14:35;0.45;;;0.40;;
13487;SDS011;6816;48.506;9.050;2022-07-12T18:17:42;0.30;;;0.30;;
13487;SDS011;6816;48.506;9.050;2022-07-12T18:21:01;0.40;;;0.40;;
13487;SDS011;6816;48.506;9.050;2022-07-12T18:24:01;0.50;;;0.40;;
13487;SDS011;6816;48.506;9.050;2022-07-12T18:27:02;0.50;;;0.50;;
13487;SDS011;6816;48.506;9.050;2022-07-12T18:30:03;1.15;;;0.68;;
13487;SDS011;6816;48.506;9.050;2022-07-12T18:33:04;1.30;;;1.00;;
13487;SDS011;6816;48.506;9.050;2022-07-12T18:36:05;1.27;;;1.00;;
13487;SDS011;6816;48.506;9.050;2022-07-12T18:39:06;1.52;;;0.70;;